Brighton, UT

9:20 AM MDT on September 02, 2014 (GMT -0600)
KUTSANDY17 | Change Station
CLOSE
Current Station
Personal Weather Station
Location: Sandy, Ut, UT
Elevation: 4619 ft
Nearby Weather Stations

Elev 4619 ft 40.61 °N, 111.84 °W | Updated 3 seconds ago

Clear
Clear
66.5 °F
Feels Like 66.5 °F
N
0.0
Wind Variable Wind from East
Gusts 0.0 mph

Today
High -- | Low -- °F
--% Chance of Precip.
Yesterday
High -- | Low -- °F
Precip. -- in
6:55 AM 7:57 PM
First Quarter, 52% visible
Pressure 29.90 in
Visibility 10.0 miles
Clouds Clear
Dew Point 46 °F
Humidity 47%
Rainfall 0.00 in
Snow Depth 0 in , 0 in , 0 in
UV 2 out of 12
Pollen 7.50 out of 12
Ozone Good
PM2.5 Good
Flu Activity Not available.
METAR KSLC 021453Z 15008KT 10SM CLR 19/07 A3004 RMK AO2 SLP125 T01890067 50007

More Conditions Fewer Conditions

Pressure 29.90 in
Visibility 10.0 miles
Clouds Clear
Dew Point 46 °F
Humidity 47%
Rainfall 0.00 in
Snow Depth 0 in , 0 in , 0 in
UV 2 out of 12
Pollen 7.50 out of 12
Ozone Good
PM2.5 Good
Flu Activity Not available.
METAR KSLC 021453Z 15008KT 10SM CLR 19/07 A3004 RMK AO2 SLP125 T01890067 50007

More Conditions Fewer Conditions

10-Day Weather Forecast

Almanac

Astronomy

Sep. 02, 2014 Rise Set
Actual Time 6:55 AM MDT 7:57 PM MDT
Civil Twilight 6:27 AM MDT 8:25 PM MDT
Nautical Twilight 5:54 AM MDT 8:58 PM MDT
Astronomical Twilight 5:19 AM MDT 9:33 PM MDT
Moon 2:45 PM MDT 12:01 AM MDT
Length of Visible Light 13h 58m
Length of Day
13h 02m
Tomorrow will be 2m 36s shorter.
First Quarter, 52% of the Moon is Illuminated
Today
First Quarter
Sep 8
Full
Sep 15
Last Quarter
Sep 24
New
Oct 1
First Quarter

Today's Extremes

State Highs State Lows

Community

WunderPhotos

Upload Photos

1,749,690 photos uploaded!

Nearby

Air Quality

  Air Quality AQ Index Pollutant
Yesterday Good
OZONE
Yesterday Good
PM2.5
Current Good
PM2.5
Current Good
OZONE
Tuesday Moderate
OZONE
Wednesday Moderate
OZONE
Thursday Moderate
OZONE

Snow Depth

Station Depth Elevation
Mill-d North 0 in 8960 ft
Louis Meadow 0 in 6700 ft
Hardscrabble 0 in 7250 ft
Dry Fork 0 in 7160 ft
Parrish Creek 0 in 7740 ft

Earthquake Activity

City Distance Mag. Time & Date
No recent earthquake activity has been reported nearby.
Minimum magnitude displayed is 2.5.

Coastal Water Temperatures

Place Temperature
No Stations Reporting

Nearby Weather Stations